createdAt,value
2018-07-20T00:00:18.312Z,1009.83
2018-07-20T00:00:44.452Z,1009.87
2018-07-20T00:01:10.597Z,1009.82
2018-07-20T00:01:36.758Z,1009.86
2018-07-20T00:02:02.893Z,1009.85
2018-07-20T00:02:29.030Z,1009.85
2018-07-20T00:02:55.168Z,1009.84
2018-07-20T00:03:21.304Z,1009.84
2018-07-20T00:03:47.440Z,1009.8
2018-07-20T00:04:13.580Z,1009.77
2018-07-20T00:04:39.718Z,1009.77
2018-07-20T00:05:05.854Z,1009.79
2018-07-20T00:05:31.988Z,1009.79
2018-07-20T00:05:58.132Z,1009.81
2018-07-20T00:06:24.292Z,1009.77
2018-07-20T00:06:50.481Z,1009.8
2018-07-20T00:07:16.618Z,1009.79
2018-07-20T00:07:42.756Z,1009.78
2018-07-20T00:08:08.969Z,1009.78
2018-07-20T00:08:35.041Z,1009.81
2018-07-20T00:09:01.180Z,1009.82
2018-07-20T00:09:27.321Z,1009.85
2018-07-20T00:09:53.454Z,1009.85
2018-07-20T00:10:19.619Z,1009.85
2018-07-20T00:10:45.764Z,1009.81
2018-07-20T00:11:11.896Z,1009.84
2018-07-20T00:11:38.040Z,1009.86
2018-07-20T00:12:04.221Z,1009.85
2018-07-20T00:12:30.357Z,1009.86
2018-07-20T00:12:56.501Z,1009.84
2018-07-20T00:13:22.663Z,1009.83
2018-07-20T00:13:48.803Z,1009.84
2018-07-20T00:14:14.938Z,1009.8
2018-07-20T00:14:41.080Z,1009.84
2018-07-20T00:15:07.218Z,1009.8
2018-07-20T00:15:33.361Z,1009.81
2018-07-20T00:15:59.497Z,1009.81
2018-07-20T00:16:25.641Z,1009.83
2018-07-20T00:16:51.836Z,1009.83
2018-07-20T00:17:17.916Z,1009.82
2018-07-20T00:17:44.051Z,1009.81
2018-07-20T00:18:10.189Z,1009.82
2018-07-20T00:18:36.333Z,1009.78
2018-07-20T00:20:44.454Z,1009.8
2018-07-20T00:21:10.617Z,1009.81
2018-07-20T00:21:36.760Z,1009.8
2018-07-20T00:22:02.892Z,1009.8
2018-07-20T00:22:29.033Z,1009.78
2018-07-20T00:22:55.199Z,1009.79
2018-07-20T00:23:21.338Z,1009.77
2018-07-20T00:23:47.473Z,1009.78
2018-07-20T00:24:13.639Z,1009.79
2018-07-20T00:24:39.780Z,1009.81
2018-07-20T00:25:05.919Z,1009.8
2018-07-20T00:25:32.063Z,1009.79
2018-07-20T00:25:58.228Z,1009.84
2018-07-20T00:26:24.411Z,1009.8
2018-07-20T00:26:50.508Z,1009.81
2018-07-20T00:27:16.642Z,1009.79
2018-07-20T00:27:42.785Z,1009.78
2018-07-20T00:28:08.925Z,1009.79
2018-07-20T00:28:35.064Z,1009.77
2018-07-20T00:29:01.230Z,1009.8
2018-07-20T00:29:27.390Z,1009.76
2018-07-20T00:29:53.555Z,1009.71
2018-07-20T00:30:19.742Z,1009.75
2018-07-20T00:30:45.834Z,1009.72
2018-07-20T00:31:11.985Z,1009.74
2018-07-20T00:31:38.119Z,1009.74
2018-07-20T00:32:04.257Z,1009.75
2018-07-20T00:32:30.409Z,1009.73
2018-07-20T00:32:56.571Z,1009.75
2018-07-20T00:33:22.712Z,1009.72
2018-07-20T00:33:48.872Z,1009.71
2018-07-20T00:34:15.012Z,1009.72
2018-07-20T00:34:41.157Z,1009.75
2018-07-20T00:35:07.290Z,1009.71
2018-07-20T00:35:33.467Z,1009.69
2018-07-20T00:35:59.602Z,1009.71
2018-07-20T00:36:25.745Z,1009.7
2018-07-20T00:36:51.901Z,1009.68
2018-07-20T00:37:18.043Z,1009.69
2018-07-20T00:37:44.177Z,1009.67
2018-07-20T00:38:10.349Z,1009.69
2018-07-20T00:38:36.477Z,1009.67
2018-07-20T00:39:02.619Z,1009.67
2018-07-20T00:39:28.759Z,1009.66
2018-07-20T00:39:54.893Z,1009.66
2018-07-20T00:40:21.028Z,1009.63
2018-07-20T00:40:47.173Z,1009.68
2018-07-20T00:41:13.365Z,1009.64
2018-07-20T00:41:39.501Z,1009.61
2018-07-20T00:42:05.639Z,1009.63
2018-07-20T00:42:31.784Z,1009.64
2018-07-20T00:42:57.951Z,1009.63
2018-07-20T00:43:24.118Z,1009.58
2018-07-20T00:43:50.300Z,1009.57
2018-07-20T00:44:16.455Z,1009.56
2018-07-20T00:44:42.596Z,1009.56
2018-07-20T00:45:08.726Z,1009.59
2018-07-20T00:45:34.863Z,1009.55
2018-07-20T00:46:01.025Z,1009.57
2018-07-20T00:46:27.168Z,1009.53
2018-07-20T00:46:53.323Z,1009.51
2018-07-20T00:47:19.461Z,1009.51
2018-07-20T00:47:45.599Z,1009.52
2018-07-20T00:48:11.737Z,1009.52
2018-07-20T00:48:37.902Z,1009.5
2018-07-20T00:49:04.046Z,1009.46
2018-07-20T00:49:30.187Z,1009.49
2018-07-20T00:49:56.351Z,1009.47
2018-07-20T00:50:23.116Z,1009.5
2018-07-20T00:50:49.262Z,1009.49
2018-07-20T00:51:15.406Z,1009.47
2018-07-20T00:51:41.543Z,1009.43
2018-07-20T00:52:07.704Z,1009.51
2018-07-20T00:52:33.838Z,1009.45
2018-07-20T00:52:59.981Z,1009.45
2018-07-20T00:53:26.162Z,1009.43
2018-07-20T00:53:52.301Z,1009.45
2018-07-20T00:54:18.445Z,1009.47
2018-07-20T00:54:44.589Z,1009.44
2018-07-20T00:55:10.723Z,1009.45
2018-07-20T00:55:36.857Z,1009.47
2018-07-20T00:56:03.001Z,1009.42
2018-07-20T00:56:29.135Z,1009.42
2018-07-20T00:56:55.279Z,1009.39
2018-07-20T00:57:21.408Z,1009.42
2018-07-20T00:57:47.575Z,1009.45
2018-07-20T00:58:13.700Z,1009.4
2018-07-20T00:58:39.834Z,1009.42
2018-07-20T00:59:06.001Z,1009.39
2018-07-20T00:59:32.168Z,1009.37
2018-07-20T00:59:58.309Z,1009.35
2018-07-20T01:00:24.441Z,1009.35
2018-07-20T01:00:50.608Z,1009.36
2018-07-20T01:01:16.746Z,1009.35
2018-07-20T01:01:42.885Z,1009.39
2018-07-20T01:02:09.020Z,1009.36
2018-07-20T01:02:35.170Z,1009.39
2018-07-20T01:03:01.302Z,1009.32
2018-07-20T01:03:27.447Z,1009.31
2018-07-20T01:03:53.605Z,1009.3
2018-07-20T01:04:19.749Z,1009.33
2018-07-20T01:04:45.911Z,1009.32
2018-07-20T01:05:12.044Z,1009.33
2018-07-20T01:05:38.183Z,1009.3
2018-07-20T01:06:04.325Z,1009.3
2018-07-20T01:06:30.458Z,1009.33
2018-07-20T01:06:56.620Z,1009.27
2018-07-20T01:07:22.762Z,1009.3
2018-07-20T01:07:48.900Z,1009.3
2018-07-20T01:08:15.044Z,1009.31
2018-07-20T01:08:41.206Z,1009.28
2018-07-20T01:09:07.345Z,1009.27
2018-07-20T01:09:33.509Z,1009.3
2018-07-20T01:09:59.640Z,1009.26
2018-07-20T01:10:25.776Z,1009.28
2018-07-20T01:10:51.929Z,1009.26
2018-07-20T01:11:18.072Z,1009.2
2018-07-20T01:11:44.210Z,1009.26
2018-07-20T01:12:10.357Z,1009.24
2018-07-20T01:12:36.496Z,1009.23
2018-07-20T01:13:02.633Z,1009.23
2018-07-20T01:13:28.776Z,1009.22
2018-07-20T01:13:54.915Z,1009.26
2018-07-20T01:14:21.054Z,1009.21
2018-07-20T01:14:47.199Z,1009.21
2018-07-20T01:15:13.339Z,1009.19
2018-07-20T01:15:39.469Z,1009.22
2018-07-20T01:16:05.610Z,1009.22
2018-07-20T01:16:31.747Z,1009.23
2018-07-20T01:16:57.903Z,1009.19
2018-07-20T01:17:24.065Z,1009.21
2018-07-20T01:17:50.207Z,1009.2
2018-07-20T01:18:16.335Z,1009.22
2018-07-20T01:18:42.475Z,1009.25
2018-07-20T01:19:08.614Z,1009.22
2018-07-20T01:19:34.777Z,1009.2
2018-07-20T01:20:00.934Z,1009.25
2018-07-20T01:20:27.103Z,1009.21
2018-07-20T01:20:53.242Z,1009.25
2018-07-20T01:21:19.400Z,1009.24
2018-07-20T01:21:45.547Z,1009.25
2018-07-20T01:22:11.681Z,1009.26
2018-07-20T01:22:37.851Z,1009.23
2018-07-20T01:23:03.984Z,1009.22
2018-07-20T01:23:30.126Z,1009.23
2018-07-20T01:23:56.267Z,1009.23
2018-07-20T01:24:22.431Z,1009.25
2018-07-20T01:24:48.619Z,1009.22
2018-07-20T01:25:14.759Z,1009.22
2018-07-20T01:25:40.893Z,1009.25
2018-07-20T01:26:07.026Z,1009.2
2018-07-20T01:26:33.169Z,1009.22
2018-07-20T01:26:59.334Z,1009.24
2018-07-20T01:27:25.503Z,1009.21
2018-07-20T01:27:51.639Z,1009.23
2018-07-20T01:28:17.773Z,1009.22
2018-07-20T01:28:43.920Z,1009.24
2018-07-20T01:29:10.061Z,1009.21
2018-07-20T01:29:36.194Z,1009.21
2018-07-20T01:30:02.330Z,1009.21
2018-07-20T01:30:28.472Z,1009.22
2018-07-20T01:30:54.606Z,1009.23
2018-07-20T01:31:20.746Z,1009.23
2018-07-20T01:31:46.885Z,1009.18
2018-07-20T01:32:13.022Z,1009.2
2018-07-20T01:32:39.152Z,1009.2
2018-07-20T01:33:05.298Z,1009.17
2018-07-20T01:33:31.438Z,1009.21
2018-07-20T01:33:57.575Z,1009.21
2018-07-20T01:34:23.711Z,1009.2
2018-07-20T01:34:49.874Z,1009.19
2018-07-20T01:35:16.017Z,1009.19
2018-07-20T01:35:42.203Z,1009.23
2018-07-20T01:36:08.338Z,1009.18
2018-07-20T01:36:34.483Z,1009.21
2018-07-20T01:37:00.624Z,1009.22
2018-07-20T01:37:26.783Z,1009.19
2018-07-20T01:37:52.918Z,1009.19
2018-07-20T01:38:19.056Z,1009.2
2018-07-20T01:38:45.202Z,1009.23
2018-07-20T01:39:11.337Z,1009.21
2018-07-20T01:39:37.474Z,1009.2
2018-07-20T01:40:03.604Z,1009.22
2018-07-20T01:40:29.750Z,1009.22
2018-07-20T01:40:55.906Z,1009.22
2018-07-20T01:41:22.048Z,1009.22
2018-07-20T01:41:48.206Z,1009.18
2018-07-20T01:42:14.346Z,1009.24
2018-07-20T01:42:40.505Z,1009.24
2018-07-20T01:43:06.675Z,1009.26
2018-07-20T01:43:32.807Z,1009.27
2018-07-20T01:43:58.946Z,1009.23
2018-07-20T01:44:25.141Z,1009.22
2018-07-20T01:44:51.303Z,1009.23
2018-07-20T01:45:17.491Z,1009.24
2018-07-20T01:45:43.627Z,1009.23
2018-07-20T01:46:09.768Z,1009.24
2018-07-20T01:46:35.903Z,1009.27
2018-07-20T01:47:02.059Z,1009.21
2018-07-20T01:47:28.198Z,1009.22
2018-07-20T01:47:54.339Z,1009.24
2018-07-20T01:48:20.476Z,1009.18
2018-07-20T01:48:46.633Z,1009.24
2018-07-20T01:49:12.792Z,1009.19
2018-07-20T01:49:38.985Z,1009.22
2018-07-20T01:50:05.124Z,1009.21
2018-07-20T01:50:31.261Z,1009.19
2018-07-20T01:50:57.404Z,1009.2
2018-07-20T01:51:23.543Z,1009.2
2018-07-20T01:51:49.685Z,1009.2
2018-07-20T01:52:15.819Z,1009.17
2018-07-20T01:52:41.954Z,1009.18
2018-07-20T01:53:08.096Z,1009.17
2018-07-20T01:53:34.234Z,1009.19
2018-07-20T01:54:00.368Z,1009.2
2018-07-20T01:54:26.513Z,1009.15
2018-07-20T01:54:52.650Z,1009.17
2018-07-20T01:55:18.787Z,1009.18
2018-07-20T01:55:44.927Z,1009.15
2018-07-20T01:56:11.067Z,1009.18
2018-07-20T01:56:37.211Z,1009.17
2018-07-20T01:57:03.357Z,1009.17
2018-07-20T01:57:29.490Z,1009.16
2018-07-20T01:57:55.633Z,1009.18
2018-07-20T01:58:21.771Z,1009.17
2018-07-20T01:58:47.902Z,1009.2
2018-07-20T01:59:14.046Z,1009.18
2018-07-20T01:59:40.177Z,1009.22
2018-07-20T02:00:06.319Z,1009.17
2018-07-20T02:00:32.479Z,1009.18
2018-07-20T02:00:58.618Z,1009.19
2018-07-20T02:01:24.751Z,1009.17
2018-07-20T02:01:50.894Z,1009.17
2018-07-20T02:02:17.034Z,1009.14
2018-07-20T02:02:43.175Z,1009.21
2018-07-20T02:03:09.313Z,1009.2
2018-07-20T02:03:35.451Z,1009.21
2018-07-20T02:04:01.592Z,1009.24
2018-07-20T02:04:27.728Z,1009.2
2018-07-20T02:04:53.866Z,1009.18
2018-07-20T02:05:20.031Z,1009.19
2018-07-20T02:05:46.174Z,1009.19
2018-07-20T02:06:12.300Z,1009.2
2018-07-20T02:06:38.447Z,1009.21
2018-07-20T02:07:04.670Z,1009.19
2018-07-20T02:07:30.804Z,1009.19
2018-07-20T02:07:56.945Z,1009.19
2018-07-20T02:08:23.087Z,1009.18
2018-07-20T02:08:49.221Z,1009.19
2018-07-20T02:09:15.355Z,1009.23
2018-07-20T02:09:41.494Z,1009.2
2018-07-20T02:10:07.629Z,1009.21
2018-07-20T02:10:33.800Z,1009.21
2018-07-20T02:10:59.970Z,1009.22
2018-07-20T02:11:26.133Z,1009.19
2018-07-20T02:11:52.301Z,1009.18
2018-07-20T02:12:18.463Z,1009.18
2018-07-20T02:12:44.595Z,1009.21
2018-07-20T02:13:10.742Z,1009.21
2018-07-20T02:13:36.871Z,1009.22
2018-07-20T02:14:03.010Z,1009.17
2018-07-20T02:14:29.148Z,1009.17
2018-07-20T02:14:55.313Z,1009.17
2018-07-20T02:15:21.447Z,1009.22
2018-07-20T02:15:47.591Z,1009.18
2018-07-20T02:16:13.754Z,1009.15
2018-07-20T02:16:39.889Z,1009.15
2018-07-20T02:17:06.031Z,1009.16
2018-07-20T02:17:32.167Z,1009.17
2018-07-20T02:17:58.310Z,1009.17
2018-07-20T02:18:24.446Z,1009.15
2018-07-20T02:18:50.577Z,1009.17
2018-07-20T02:19:16.718Z,1009.15
2018-07-20T02:19:42.851Z,1009.19
2018-07-20T02:20:08.992Z,1009.19
2018-07-20T02:20:35.127Z,1009.15
2018-07-20T02:21:01.266Z,1009.15
2018-07-20T02:21:27.423Z,1009.17
2018-07-20T02:21:53.539Z,1009.18
2018-07-20T02:22:19.678Z,1009.17
2018-07-20T02:22:45.820Z,1009.16
2018-07-20T02:23:11.947Z,1009.13
2018-07-20T02:23:38.089Z,1009.13
2018-07-20T02:24:04.226Z,1009.16
2018-07-20T02:24:30.391Z,1009.18
2018-07-20T02:24:56.530Z,1009.12
2018-07-20T02:25:22.664Z,1009.14
2018-07-20T02:25:48.796Z,1009.17
2018-07-20T02:26:14.936Z,1009.1
2018-07-20T02:26:41.081Z,1009.12
2018-07-20T02:27:07.217Z,1009.13
2018-07-20T02:27:33.380Z,1009.11
2018-07-20T02:27:59.519Z,1009.09
2018-07-20T02:28:25.666Z,1009.11
2018-07-20T02:28:51.801Z,1009.12
2018-07-20T02:29:17.961Z,1009.08
2018-07-20T02:29:44.095Z,1009.1
2018-07-20T02:30:10.226Z,1009.1
2018-07-20T02:30:36.364Z,1009.11
2018-07-20T02:31:02.560Z,1009.08
2018-07-20T02:31:28.727Z,1009.1
2018-07-20T02:31:54.887Z,1009.08
2018-07-20T02:32:21.071Z,1009.06
2018-07-20T02:32:47.201Z,1009.07
2018-07-20T02:33:13.348Z,1009.03
2018-07-20T02:33:39.533Z,1009.05
2018-07-20T02:34:05.721Z,1009.04
2018-07-20T02:34:31.866Z,1009.05
2018-07-20T02:34:58.028Z,1009.04
2018-07-20T02:35:24.168Z,1009.03
2018-07-20T02:35:50.313Z,1009.04
2018-07-20T02:36:16.475Z,1009.01
2018-07-20T02:36:42.665Z,1009.03
2018-07-20T02:37:08.810Z,1008.98
2018-07-20T02:37:34.969Z,1009
2018-07-20T02:38:01.132Z,1008.98
2018-07-20T02:38:27.323Z,1008.94
2018-07-20T02:38:53.500Z,1008.98
2018-07-20T02:39:19.635Z,1008.98
2018-07-20T02:39:45.778Z,1008.97
2018-07-20T02:40:11.987Z,1008.96
2018-07-20T02:40:38.112Z,1008.95
2018-07-20T02:41:04.279Z,1008.97
2018-07-20T02:41:30.419Z,1008.94
2018-07-20T02:41:56.558Z,1008.98
2018-07-20T02:42:22.699Z,1008.92
2018-07-20T02:42:48.861Z,1008.93
2018-07-20T02:43:15.002Z,1008.9
2018-07-20T02:43:41.184Z,1008.9
2018-07-20T02:44:07.333Z,1008.9
2018-07-20T02:44:33.514Z,1008.86
2018-07-20T02:44:59.651Z,1008.89
2018-07-20T02:45:25.864Z,1008.87
2018-07-20T02:45:52.005Z,1008.89
2018-07-20T02:46:18.190Z,1008.88
2018-07-20T02:46:44.324Z,1008.84
2018-07-20T02:47:10.487Z,1008.83
2018-07-20T02:47:36.651Z,1008.86
2018-07-20T02:48:02.790Z,1008.84
2018-07-20T02:48:28.932Z,1008.84
2018-07-20T02:48:55.094Z,1008.83
2018-07-20T02:49:21.285Z,1008.83
2018-07-20T02:49:47.422Z,1008.89
2018-07-20T02:50:13.589Z,1008.85
2018-07-20T02:50:39.777Z,1008.85
2018-07-20T02:51:05.924Z,1008.85
2018-07-20T02:51:32.104Z,1008.86
2018-07-20T02:51:58.240Z,1008.9
2018-07-20T02:52:24.375Z,1008.9
2018-07-20T02:52:50.525Z,1008.86
2018-07-20T02:53:16.676Z,1008.85
2018-07-20T02:53:42.808Z,1008.82
2018-07-20T02:54:08.950Z,1008.86
2018-07-20T02:54:35.092Z,1008.82
2018-07-20T02:55:01.305Z,1008.85
2018-07-20T02:55:27.472Z,1008.85
2018-07-20T02:55:53.630Z,1008.84
2018-07-20T02:56:19.772Z,1008.85
2018-07-20T02:56:45.924Z,1008.84
2018-07-20T02:57:12.070Z,1008.83
2018-07-20T02:57:38.232Z,1008.83
2018-07-20T02:58:04.398Z,1008.82
2018-07-20T02:58:30.537Z,1008.85
2018-07-20T02:58:56.690Z,1008.85
2018-07-20T02:59:22.861Z,1008.83
2018-07-20T02:59:49.031Z,1008.86
2018-07-20T03:00:15.191Z,1008.85
2018-07-20T03:00:41.330Z,1008.84
2018-07-20T03:01:07.502Z,1008.84
2018-07-20T03:01:33.636Z,1008.83
2018-07-20T03:01:59.825Z,1008.84
2018-07-20T03:02:26.017Z,1008.81
2018-07-20T03:02:52.174Z,1008.85
2018-07-20T03:03:18.319Z,1008.83
2018-07-20T03:03:44.476Z,1008.84
2018-07-20T03:04:10.653Z,1008.85
2018-07-20T03:04:36.850Z,1008.82
2018-07-20T03:05:03.195Z,1008.83
2018-07-20T03:05:29.458Z,1008.85
2018-07-20T03:05:55.704Z,1008.86
2018-07-20T03:06:22.160Z,1008.8
2018-07-20T03:06:48.394Z,1008.83
2018-07-20T03:07:14.728Z,1008.82
2018-07-20T03:07:40.870Z,1008.83
2018-07-20T03:08:07.004Z,1008.8
2018-07-20T03:08:33.141Z,1008.84
2018-07-20T03:08:59.328Z,1008.83
2018-07-20T03:09:25.471Z,1008.83
2018-07-20T03:09:51.634Z,1008.82
2018-07-20T03:10:17.773Z,1008.81
2018-07-20T03:10:43.932Z,1008.78
2018-07-20T03:11:10.143Z,1008.82
2018-07-20T03:11:36.275Z,1008.79
2018-07-20T03:12:02.435Z,1008.83
2018-07-20T03:12:28.595Z,1008.8
2018-07-20T03:12:54.730Z,1008.8
2018-07-20T03:13:20.924Z,1008.8
2018-07-20T03:13:47.067Z,1008.83
2018-07-20T03:14:13.221Z,1008.79
2018-07-20T03:14:39.382Z,1008.79
2018-07-20T03:15:05.524Z,1008.82
2018-07-20T03:15:31.663Z,1008.81
2018-07-20T03:15:57.807Z,1008.82
2018-07-20T03:16:23.947Z,1008.85
2018-07-20T03:16:50.086Z,1008.85
2018-07-20T03:17:16.222Z,1008.76
2018-07-20T03:17:42.386Z,1008.86
2018-07-20T03:18:08.549Z,1008.87
2018-07-20T03:18:34.707Z,1008.82
2018-07-20T03:19:00.840Z,1008.83
2018-07-20T03:19:27.024Z,1008.83
2018-07-20T03:19:53.186Z,1008.81
2018-07-20T03:20:19.379Z,1008.82
2018-07-20T03:20:45.526Z,1008.84
2018-07-20T03:21:11.753Z,1008.82
2018-07-20T03:21:37.867Z,1008.83
2018-07-20T03:22:04.010Z,1008.83
2018-07-20T03:22:30.176Z,1008.84
2018-07-20T03:22:56.308Z,1008.83
2018-07-20T03:23:22.474Z,1008.86
2018-07-20T03:23:48.614Z,1008.8
2018-07-20T03:24:14.750Z,1008.86
2018-07-20T03:24:40.912Z,1008.83
2018-07-20T03:25:07.093Z,1008.85
2018-07-20T03:25:33.261Z,1008.81
2018-07-20T03:25:59.404Z,1008.8
2018-07-20T03:26:25.567Z,1008.79
2018-07-20T03:26:51.723Z,1008.81
2018-07-20T03:27:17.867Z,1008.82
2018-07-20T03:27:44.016Z,1008.8
2018-07-20T03:28:10.178Z,1008.76
2018-07-20T03:28:36.314Z,1008.79
2018-07-20T03:29:02.447Z,1008.79
2018-07-20T03:29:28.586Z,1008.78
2018-07-20T03:29:54.725Z,1008.8
2018-07-20T03:30:20.887Z,1008.8
2018-07-20T03:30:47.025Z,1008.8
2018-07-20T03:31:13.209Z,1008.81
2018-07-20T03:31:39.365Z,1008.78
2018-07-20T03:32:05.535Z,1008.77
2018-07-20T03:32:31.669Z,1008.8
2018-07-20T03:32:57.888Z,1008.77
2018-07-20T03:33:23.986Z,1008.81
2018-07-20T03:33:50.123Z,1008.76
2018-07-20T03:34:16.262Z,1008.76
2018-07-20T03:34:42.403Z,1008.72
2018-07-20T03:35:08.563Z,1008.78
2018-07-20T03:35:34.703Z,1008.72
2018-07-20T03:36:00.860Z,1008.76
2018-07-20T03:36:26.999Z,1008.73
2018-07-20T03:36:53.139Z,1008.74
2018-07-20T03:37:19.271Z,1008.75
2018-07-20T03:37:45.416Z,1008.76
2018-07-20T03:38:11.551Z,1008.71
2018-07-20T03:38:37.695Z,1008.75
2018-07-20T03:39:03.837Z,1008.71
2018-07-20T03:39:29.984Z,1008.72
2018-07-20T03:39:56.117Z,1008.73
2018-07-20T03:40:22.276Z,1008.77
2018-07-20T03:40:48.417Z,1008.72
2018-07-20T03:41:14.551Z,1008.73
2018-07-20T03:41:40.697Z,1008.75
2018-07-20T03:42:06.857Z,1008.76
2018-07-20T03:42:32.991Z,1008.73
2018-07-20T03:42:59.136Z,1008.75
2018-07-20T03:43:25.275Z,1008.73
2018-07-20T03:43:51.425Z,1008.76
2018-07-20T03:44:17.601Z,1008.73
2018-07-20T03:44:43.774Z,1008.75
2018-07-20T03:45:09.937Z,1008.71
2018-07-20T03:45:36.072Z,1008.73
2018-07-20T03:46:02.210Z,1008.73
2018-07-20T03:46:28.352Z,1008.74
2018-07-20T03:46:54.492Z,1008.73
2018-07-20T03:47:20.630Z,1008.73
2018-07-20T03:47:46.772Z,1008.74
2018-07-20T03:48:12.914Z,1008.76
2018-07-20T03:48:39.061Z,1008.79
2018-07-20T03:49:05.331Z,1008.76
2018-07-20T03:49:31.407Z,1008.77
2018-07-20T03:49:57.533Z,1008.73
2018-07-20T03:50:23.672Z,1008.75
2018-07-20T03:50:49.834Z,1008.77
2018-07-20T03:51:16.004Z,1008.73
2018-07-20T03:51:42.136Z,1008.74
2018-07-20T03:52:08.352Z,1008.72
2018-07-20T03:52:34.457Z,1008.7
2018-07-20T03:53:00.596Z,1008.7
2018-07-20T03:53:26.731Z,1008.67
2018-07-20T03:53:52.865Z,1008.7
2018-07-20T03:54:19.008Z,1008.7
2018-07-20T03:54:45.172Z,1008.7
2018-07-20T03:55:11.309Z,1008.71
2018-07-20T03:55:37.451Z,1008.7
2018-07-20T03:56:03.602Z,1008.72
2018-07-20T03:56:29.772Z,1008.69
2018-07-20T03:56:55.912Z,1008.7
2018-07-20T03:57:22.098Z,1008.71
2018-07-20T03:57:48.234Z,1008.71
2018-07-20T03:58:14.360Z,1008.72
2018-07-20T03:58:40.500Z,1008.73
2018-07-20T03:59:06.664Z,1008.69
2018-07-20T03:59:32.796Z,1008.72
2018-07-20T03:59:58.946Z,1008.7
2018-07-20T04:00:25.106Z,1008.71
2018-07-20T04:00:51.246Z,1008.73
2018-07-20T04:01:17.385Z,1008.72
2018-07-20T04:01:43.525Z,1008.7
2018-07-20T04:02:09.663Z,1008.69
2018-07-20T04:02:35.827Z,1008.68
2018-07-20T04:03:01.963Z,1008.69
2018-07-20T04:03:28.104Z,1008.69
2018-07-20T04:03:54.242Z,1008.67
2018-07-20T04:04:20.371Z,1008.68
2018-07-20T04:04:46.520Z,1008.68
2018-07-20T04:05:12.661Z,1008.68
2018-07-20T04:05:38.799Z,1008.68
2018-07-20T04:06:04.931Z,1008.65
2018-07-20T04:06:31.067Z,1008.65
2018-07-20T04:06:57.210Z,1008.65
2018-07-20T04:07:23.343Z,1008.68
2018-07-20T04:07:49.483Z,1008.67
2018-07-20T04:08:15.651Z,1008.69
2018-07-20T04:08:41.811Z,1008.69
2018-07-20T04:09:07.944Z,1008.69
2018-07-20T04:09:34.083Z,1008.66
2018-07-20T04:10:00.222Z,1008.68
2018-07-20T04:10:26.380Z,1008.68
2018-07-20T04:10:52.521Z,1008.69
2018-07-20T04:11:18.663Z,1008.68
2018-07-20T04:11:44.814Z,1008.65
2018-07-20T04:12:10.955Z,1008.71
2018-07-20T04:12:37.093Z,1008.65
2018-07-20T04:13:03.256Z,1008.66
2018-07-20T04:13:29.394Z,1008.62
2018-07-20T04:13:55.529Z,1008.65
2018-07-20T04:14:21.686Z,1008.6
2018-07-20T04:14:47.821Z,1008.6
2018-07-20T04:15:13.982Z,1008.63
2018-07-20T04:15:40.121Z,1008.59
2018-07-20T04:16:06.257Z,1008.61
2018-07-20T04:16:32.401Z,1008.63
2018-07-20T04:16:58.538Z,1008.61
2018-07-20T04:17:24.700Z,1008.62
2018-07-20T04:17:50.836Z,1008.61
2018-07-20T04:18:16.969Z,1008.6
2018-07-20T04:18:43.122Z,1008.63
2018-07-20T04:19:09.256Z,1008.64
2018-07-20T04:19:35.399Z,1008.62
2018-07-20T04:20:01.536Z,1008.64
2018-07-20T04:20:27.700Z,1008.63
2018-07-20T04:20:53.913Z,1008.65
2018-07-20T04:21:20.009Z,1008.63
2018-07-20T04:21:46.148Z,1008.67
2018-07-20T04:22:12.289Z,1008.67
2018-07-20T04:22:38.423Z,1008.68
2018-07-20T04:23:04.558Z,1008.64
2018-07-20T04:23:30.697Z,1008.72
2018-07-20T04:23:56.838Z,1008.68
2018-07-20T04:24:22.979Z,1008.65
2018-07-20T04:24:49.117Z,1008.67
2018-07-20T04:25:15.255Z,1008.68
2018-07-20T04:25:41.397Z,1008.69
2018-07-20T04:26:07.531Z,1008.68
2018-07-20T04:26:33.674Z,1008.67
2018-07-20T04:26:59.807Z,1008.7
2018-07-20T04:27:25.948Z,1008.71
2018-07-20T04:27:52.078Z,1008.68
2018-07-20T04:28:18.219Z,1008.67
2018-07-20T04:28:44.350Z,1008.68
2018-07-20T04:29:10.493Z,1008.69
2018-07-20T04:29:36.630Z,1008.66
2018-07-20T04:30:02.774Z,1008.64
2018-07-20T04:30:28.916Z,1008.64
2018-07-20T04:30:55.051Z,1008.63
2018-07-20T04:31:21.220Z,1008.64
2018-07-20T04:31:47.355Z,1008.63
2018-07-20T04:32:13.503Z,1008.62
2018-07-20T04:32:39.630Z,1008.65
2018-07-20T04:33:05.771Z,1008.64
2018-07-20T04:33:31.906Z,1008.62
2018-07-20T04:33:58.068Z,1008.65
2018-07-20T04:34:24.213Z,1008.65
2018-07-20T04:34:50.377Z,1008.65
2018-07-20T04:35:16.526Z,1008.6
2018-07-20T04:35:42.670Z,1008.59
2018-07-20T04:36:08.806Z,1008.62
2018-07-20T04:36:34.944Z,1008.61
2018-07-20T04:37:01.097Z,1008.59
2018-07-20T04:37:27.226Z,1008.59
2018-07-20T04:37:53.384Z,1008.57
2018-07-20T04:38:19.524Z,1008.58
2018-07-20T04:38:45.689Z,1008.62
2018-07-20T04:39:11.823Z,1008.57
2018-07-20T04:39:37.994Z,1008.56
2018-07-20T04:40:04.130Z,1008.54
2018-07-20T04:40:30.301Z,1008.51
2018-07-20T04:40:56.443Z,1008.54
2018-07-20T04:41:22.578Z,1008.54
2018-07-20T04:41:48.716Z,1008.54
2018-07-20T04:42:14.880Z,1008.53
2018-07-20T04:42:41.016Z,1008.53
2018-07-20T04:43:07.156Z,1008.52
2018-07-20T04:43:33.294Z,1008.56
2018-07-20T04:43:59.534Z,1008.58
2018-07-20T04:44:25.571Z,1008.59
2018-07-20T04:44:51.702Z,1008.58
2018-07-20T04:45:17.871Z,1008.6
2018-07-20T04:45:44.032Z,1008.6
2018-07-20T04:46:10.168Z,1008.62
2018-07-20T04:46:36.305Z,1008.54
2018-07-20T04:47:02.441Z,1008.62
2018-07-20T04:47:28.579Z,1008.59
2018-07-20T04:47:54.725Z,1008.65
2018-07-20T04:48:20.858Z,1008.58
2018-07-20T04:48:47.017Z,1008.59
2018-07-20T04:49:13.159Z,1008.63
2018-07-20T04:49:39.293Z,1008.58
2018-07-20T04:50:05.432Z,1008.59
2018-07-20T04:50:31.567Z,1008.61
2018-07-20T04:50:57.709Z,1008.61
2018-07-20T04:51:23.850Z,1008.59
2018-07-20T04:51:50.012Z,1008.62
2018-07-20T04:52:16.145Z,1008.63
2018-07-20T04:52:42.318Z,1008.65
2018-07-20T04:53:08.525Z,1008.59
2018-07-20T04:53:34.663Z,1008.63
2018-07-20T04:54:00.822Z,1008.62
2018-07-20T04:54:26.959Z,1008.63
2018-07-20T04:54:53.120Z,1008.64
2018-07-20T04:55:19.285Z,1008.68
2018-07-20T04:55:45.422Z,1008.67
2018-07-20T04:56:11.558Z,1008.67
2018-07-20T04:56:37.692Z,1008.7
2018-07-20T04:57:03.843Z,1008.68
2018-07-20T04:57:29.983Z,1008.66
2018-07-20T04:57:56.136Z,1008.68
2018-07-20T04:58:22.280Z,1008.65
2018-07-20T04:58:48.490Z,1008.64
2018-07-20T04:59:14.561Z,1008.69
2018-07-20T04:59:40.712Z,1008.68
2018-07-20T05:00:06.899Z,1008.69
2018-07-20T05:00:33.036Z,1008.7
2018-07-20T05:00:59.184Z,1008.69
2018-07-20T05:01:25.323Z,1008.67
2018-07-20T05:01:51.459Z,1008.72
2018-07-20T05:02:17.605Z,1008.68
2018-07-20T05:02:43.771Z,1008.72
2018-07-20T05:03:09.909Z,1008.71
2018-07-20T05:03:36.129Z,1008.71
2018-07-20T05:04:02.229Z,1008.72
2018-07-20T05:04:28.363Z,1008.71
2018-07-20T05:04:54.525Z,1008.72
2018-07-20T05:05:20.661Z,1008.73
2018-07-20T05:05:46.827Z,1008.72
2018-07-20T05:06:12.953Z,1008.72
2018-07-20T05:06:39.093Z,1008.73
2018-07-20T05:07:05.250Z,1008.73
2018-07-20T05:07:31.424Z,1008.72
2018-07-20T05:07:57.605Z,1008.72
2018-07-20T05:08:23.743Z,1008.71
2018-07-20T05:08:49.881Z,1008.71
2018-07-20T05:09:16.021Z,1008.73
2018-07-20T05:09:42.162Z,1008.76
2018-07-20T05:10:08.307Z,1008.74
2018-07-20T05:10:34.445Z,1008.76
2018-07-20T05:11:00.585Z,1008.73
2018-07-20T05:11:26.779Z,1008.73
2018-07-20T05:11:52.855Z,1008.75
2018-07-20T05:12:19.001Z,1008.72
2018-07-20T05:12:45.138Z,1008.7
2018-07-20T05:13:11.279Z,1008.68
2018-07-20T05:13:37.424Z,1008.69
2018-07-20T05:14:03.567Z,1008.67
2018-07-20T05:14:29.729Z,1008.69
2018-07-20T05:14:55.861Z,1008.69
2018-07-20T05:15:22.004Z,1008.69
2018-07-20T05:15:48.140Z,1008.66
2018-07-20T05:16:14.310Z,1008.65
2018-07-20T05:16:40.465Z,1008.67
2018-07-20T05:17:06.627Z,1008.62
2018-07-20T05:17:32.769Z,1008.63
2018-07-20T05:17:58.911Z,1008.61
2018-07-20T05:18:25.057Z,1008.61
2018-07-20T05:18:51.194Z,1008.6
2018-07-20T05:19:17.334Z,1008.58